• Join FlightAware (Why Join?)
  • Login
  • US Flag 
02:58AM EST


 

Airport Tracker/Info


-or-


 

Live Flight TrackerFlight Track Log ✈ LJY630 ✈ 24-Dec-2013 ✈ KILG - KMGW

Flight Track Log - Related Links

Times and Time Zones

All times are in EST time to prevent confusion due to time zone crossing. See the LJY630 flight status page for this flight to view local times or setup timezone preferences in your user account.

Time Position Orientation Groundspeed Altitude Reporting Facility
EST Latitude Longitude Course Direction KTS MPH feet Rate Location/Type
10:23AM 39.7000 -75.6000 360° North 204 235 800  Level Philadelphia TRACON
10:23AM 39.7000 -75.6000 320° Northwest 203 234 1,200 2,340 Climbing Philadelphia TRACON
10:24AM 39.7297 -75.6325 339° North 204 235 2,700 2,280 Climbing New York Center
10:25AM 39.7864 -75.6281 North 241 277 5,000 1,860 Climbing New York Center
10:26AM 39.8600 -75.6117 10° North 247 284 6,500 2,220 Climbing New York Center
10:27AM 39.9131 -75.6397 338° Northwest 220 253 9,400 2,160 Climbing New York Center
10:28AM 39.9217 -75.7322 277° West 213 245 10,900 1,800 Climbing New York Center
10:29AM 39.9203 -75.8133 269° West 242 278 13,100 2,400 Climbing New York Center
10:30AM 39.9186 -75.8972 269° West 249 287 15,800 4,440 Climbing New York Center
10:31AM 39.9169 -75.9864 269° West 249 287 22,000 1,860 Climbing New York Center
10:32AM 39.9131 -76.0728 267° West 249 287 19,600 -180 Descending New York Center
10:33AM 39.9128 -76.1703 270° West 254 292 21,700 1,200 Climbing New York Center
10:34AM 39.9119 -76.2758 269° West 275 316 22,000 120 Climbing New York Center
10:35AM 39.9175 -76.3844 274° West 295 339 22,000  Level New York Center
10:36AM 39.9222 -76.4986 273° West 307 353 22,000  Level New York Center
10:37AM 39.9189 -76.6119 268° West 313 360 22,000  Level New York Center
10:38AM 39.9083 -76.7356 264° West 327 376 22,000  Level New York Center
10:39AM 39.9000 -76.8594 265° West 340 391 22,000  Level New York Center
10:41AM 39.8833 -77.1139 265° West 332 382 22,000  Level Washington Center
10:42AM 39.8753 -77.2358 265° West 333 383 22,000  Level Cleveland Center
10:43AM 39.8656 -77.3583 264° West 340 391 22,000  Level Cleveland Center
10:44AM 39.8558 -77.4822 264° West 344 396 22,000 -120 Level Cleveland Center
10:45AM 39.8467 -77.6064 265° West 348 400 21,800 -600 Descending Cleveland Center
10:46AM 39.8364 -77.7292 264° West 344 396 20,800 -1,080 Descending Cleveland Center
10:47AM 39.8250 -77.8678 264° West 325 374 19,600 -1,080 Descending Cleveland Center
10:48AM 39.8147 -77.9858 264° West 328 377 18,600 -900 Descending Cleveland Center
10:49AM 39.8053 -78.1086 264° West 339 390 17,800 -960 Descending Cleveland Center
10:50AM 39.7956 -78.2286 264° West 338 389 16,700 -1,320 Descending Cleveland Center
10:51AM 39.7881 -78.3272 264° West 329 379 15,500 -1,680 Descending Cleveland Center
10:51AM 39.7844 -78.3622 262° West 330 380 15,000 -1,560 Descending Cleveland Center
10:52AM 39.7758 -78.4589 263° West 317 365 13,800 -1,380 Descending Cleveland Center
10:52AM 39.7756 -78.4750 269° West 319 367 13,600 -1,260 Descending Cleveland Center
10:53AM 39.7672 -78.5689 263° West 312 359 12,300 -1,560 Descending Cleveland Center
10:54AM 39.7567 -78.6736 263° West 297 342 10,800 -1,800 Descending Cleveland Center
10:55AM 39.7564 -78.6933 269° West 296 341 10,500 -1,140 Descending Cleveland Center
10:55AM 39.7494 -78.7622 263° West 241 277 9,700 -1,020 Descending Cleveland Center
10:56AM 39.7492 -78.7808 269° West 262 302 9,500 -1,020 Descending Cleveland Center
10:56AM 39.7431 -78.8428 263° West 225 259 8,700 -1,020 Descending Cleveland Center
10:57AM 39.7419 -78.8611 265° West 236 272 8,500 -1,020 Descending Cleveland Center
10:57AM 39.7444 -78.9272 273° West 221 254 7,700 -1,020 Descending Cleveland Center
10:58AM 39.7458 -78.9403 278° West 225 259 7,500 -840 Descending Cleveland Center
10:58AM 39.7528 -79.0069 278° West 227 261 6,900 -420 Descending Cleveland Center
10:59AM 39.7544 -79.0158 284° West 227 261 7,100 -120 Climbing Cleveland Center
10:59AM 39.7606 -79.0897 276° West 229 264 6,800 -120 Descending Cleveland Center
11:00AM 39.7644 -79.1144 282° West 230 265 7,000 180 Climbing Cleveland Center
11:01AM 39.7731 -79.1975 278° West 232 267 7,100  Climbing Cleveland Center
11:02AM 39.7808 -79.2781 277° West 228 262 7,000 -480 Descending Cleveland Center
11:03AM 39.7872 -79.3611 276° West 230 265 6,200 -660 Descending Cleveland Center
11:04AM 39.7953 -79.4422 277° West 229 264 5,700 -540 Descending Cleveland Center
11:05AM 39.8025 -79.5200 277° West 223 257 5,200 -360 Descending Cleveland Center
11:06AM 39.8103 -79.6014 277° West 224 258 5,000 -120 Descending Cleveland Center
11:07AM 39.8194 -79.6978 277° West 225 259 5,000  Level Cleveland Center
11:08AM 39.8239 -79.7756 274° West 219 252 5,000 -300 Level Cleveland Center
11:09AM 39.8225 -79.8517 269° West 213 245 4,400 -900 Descending Cleveland Center
11:10AM 39.8064 -79.9258 254° West 222 255 3,200 -720 Descending Cleveland Center
11:11AM 39.7494 -79.9381 189° South 215 247 3,000 -300 Descending Cleveland Center
11:12AM 39.7053 -79.9289 171° South 186 214 2,600 -660 Descending Cleveland Center
11:13AM 39.6669 -79.9214 171° South 158 182 1,700 -900 Descending Cleveland Center